Time;durP1;ratioP1;P1;durP2;ratioP2;P2;SDS_P1;SDS_P2;PMS_P1;PMS_P2;Temp;Humidity;BMP_temperature;BMP_pressure;BME280_temperature;BME280_humidity;BME280_pressure;Samples;Min_cycle;Max_cycle;Signal;HPM_P1;HPM_P2
2024/04/03 00:01:26;;;;;;;37.10;13.65;;;15.40;99.90;;;;;;4975580;28;20110;-92
2024/04/03 00:03:51;;;;;;;38.90;13.32;;;15.40;99.60;;;;;;4975656;28;20030;-92
2024/04/03 00:06:17;;;;;;;44.55;14.07;;;15.40;98.80;;;;;;4974327;28;20033;-91
2024/04/03 00:08:43;;;;;;;34.00;13.55;;;15.40;99.90;;;;;;4962214;28;20038;-92
2024/04/03 00:11:09;;;;;;;39.25;12.30;;;15.40;99.90;;;;;;4966495;28;20015;-92
2024/04/03 00:13:35;;;;;;;30.60;12.68;;;15.40;99.30;;;;;;4975538;28;20027;-92
2024/04/03 00:16:00;;;;;;;39.10;14.30;;;15.40;99.90;;;;;;4972038;28;20031;-91
2024/04/03 00:18:26;;;;;;;37.28;13.55;;;15.40;99.90;;;;;;4964190;28;20134;-91
2024/04/03 00:21:01;;;;;;;29.77;12.45;;;15.50;99.40;;;;;;4991388;28;20046;-87
2024/04/03 00:23:27;;;;;;;42.25;12.80;;;15.50;98.00;;;;;;4996836;28;20033;-91
2024/04/03 00:26:00;;;;;;;33.38;13.05;;;15.50;96.20;;;;;;4977614;28;20476;-90
2024/04/03 00:28:27;;;;;;;36.35;12.68;;;15.50;98.80;;;;;;4982590;28;20011;-90
2024/04/03 00:30:53;;;;;;;41.92;13.63;;;15.50;97.10;;;;;;4981688;28;20042;-89
2024/04/03 00:33:20;;;;;;;39.78;12.30;;;15.50;96.50;;;;;;4977515;28;20484;-89
2024/04/03 00:35:59;;;;;;;37.33;11.87;;;15.50;97.70;;;;;;4975468;28;20081;-90
2024/04/03 00:38:26;;;;;;;33.50;11.55;;;15.60;98.70;;;;;;4963768;28;20026;-90
2024/04/03 00:40:59;;;;;;;40.35;13.30;;;15.50;97.90;;;;;;4976204;28;20023;-89
2024/04/03 00:43:29;;;;;;;43.00;13.43;;;15.50;96.80;;;;;;4977883;28;20029;-91
2024/04/03 00:45:58;;;;;;;33.95;11.40;;;15.60;97.20;;;;;;4977575;28;20031;-91
2024/04/03 00:48:24;;;;;;;39.80;13.50;;;15.50;96.80;;;;;;4975806;28;20059;-92
2024/04/03 00:50:53;;;;;;;29.85;11.65;;;15.50;99.20;;;;;;4969517;28;20027;-90
2024/04/03 00:53:19;;;;;;;34.70;12.35;;;15.50;95.50;;;;;;4976658;28;20412;-88
2024/04/03 00:55:45;;;;;;;38.90;12.50;;;15.50;97.10;;;;;;4978484;28;20026;-91
2024/04/03 00:58:11;;;;;;;32.30;12.00;;;15.50;95.30;;;;;;4975651;28;20073;-91
2024/04/03 01:00:37;;;;;;;30.70;12.10;;;15.50;93.90;;;;;;4974010;28;20066;-90
2024/04/03 01:03:06;;;;;;;41.40;12.55;;;15.50;94.60;;;;;;4974745;28;20369;-91
2024/04/03 01:05:34;;;;;;;29.90;11.57;;;15.50;94.80;;;;;;4976308;28;20014;-91
2024/04/03 01:07:59;;;;;;;;;;;15.50;93.40;;;;;;4976361;28;20038;-90
2024/04/03 01:10:26;;;;;;;33.88;12.70;;;15.50;96.00;;;;;;4984914;28;19906;-90
2024/04/03 01:12:54;;;;;;;23.15;12.70;;;15.40;95.20;;;;;;4992939;28;20042;-89
2024/04/03 01:15:20;;;;;;;35.95;13.25;;;15.40;94.60;;;;;;4995196;28;20027;-90
2024/04/03 01:17:46;;;;;;;28.63;11.55;;;15.40;93.70;;;;;;4983783;28;20030;-90
2024/04/03 01:20:12;;;;;;;31.20;11.80;;;15.30;95.70;;;;;;4979508;28;20041;-91
2024/04/03 01:22:38;;;;;;;37.38;12.50;;;15.30;96.20;;;;;;4969890;28;20015;-91
2024/04/03 01:25:07;;;;;;;30.73;11.80;;;15.30;93.80;;;;;;4976721;28;20085;-91
2024/04/03 01:27:33;;;;;;;28.02;12.55;;;15.30;95.10;;;;;;4971075;28;20115;-92
2024/04/03 01:29:59;;;;;;;34.00;11.48;;;15.30;94.40;;;;;;4965647;28;20500;-91
2024/04/03 01:32:28;;;;;;;26.30;11.27;;;15.20;95.30;;;;;;4979725;28;20502;-90
2024/04/03 01:34:55;;;;;;;35.42;12.48;;;15.20;93.70;;;;;;4982658;28;20027;-90
2024/04/03 01:37:21;;;;;;;32.42;12.40;;;15.20;95.40;;;;;;4977302;28;20023;-90
2024/04/03 01:39:51;;;;;;;32.13;10.98;;;15.10;95.40;;;;;;4977989;28;20045;-91
2024/04/03 01:42:17;;;;;;;34.38;11.60;;;15.10;96.90;;;;;;4962405;28;20503;-89
2024/04/03 01:44:43;;;;;;;34.08;12.50;;;15.00;96.10;;;;;;4975220;28;20035;-90
2024/04/03 01:47:09;;;;;;;29.90;11.55;;;15.00;95.80;;;;;;4977651;28;20061;-91
2024/04/03 01:49:35;;;;;;;29.77;12.35;;;15.00;94.60;;;;;;4980903;28;20041;-90
2024/04/03 01:52:01;;;;;;;32.08;11.90;;;14.90;94.40;;;;;;4975520;28;20031;-92
2024/04/03 01:54:27;;;;;;;38.45;11.95;;;14.90;94.40;;;;;;4963652;28;20031;-88
2024/04/03 01:56:53;;;;;;;28.33;12.40;;;14.90;95.30;;;;;;4990947;28;20094;-92
2024/04/03 01:59:19;;;;;;;28.98;11.68;;;14.90;96.40;;;;;;4982375;28;20500;-91
2024/04/03 02:01:45;;;;;;;37.67;11.18;;;14.80;94.20;;;;;;4986598;28;20023;-90
2024/04/03 02:04:14;;;;;;;31.87;10.60;;;14.80;94.30;;;;;;4974408;28;20135;-91
2024/04/03 02:06:40;;;;;;;31.67;11.25;;;14.80;97.20;;;;;;4974154;28;20114;-90
2024/04/03 02:09:07;;;;;;;31.83;11.25;;;14.80;94.90;;;;;;4974906;28;20035;-88
2024/04/03 02:11:32;;;;;;;33.83;11.50;;;14.80;94.10;;;;;;4975854;28;20042;-88
2024/04/03 02:13:58;;;;;;;27.65;11.13;;;14.70;95.10;;;;;;4959502;28;20034;-86
2024/04/03 02:16:25;;;;;;;30.95;11.02;;;14.80;92.80;;;;;;4972640;28;20109;-85
2024/04/03 02:18:50;;;;;;;29.27;11.32;;;14.80;93.00;;;;;;4974963;28;20417;-86
2024/04/03 02:21:16;;;;;;;38.10;13.02;;;14.80;93.40;;;;;;4971456;28;20034;-86
2024/04/03 02:23:42;;;;;;;32.20;11.07;;;14.80;95.50;;;;;;4954729;28;20038;-87
2024/04/03 02:26:08;;;;;;;32.17;10.32;;;14.70;94.90;;;;;;4971421;28;20373;-86
2024/04/03 02:28:33;;;;;;;24.30;10.48;;;14.70;93.00;;;;;;4967374;28;20499;-85
2024/04/03 02:31:03;;;;;;;36.42;12.40;;;14.70;93.80;;;;;;4972625;28;20041;-88
2024/04/03 02:33:29;;;;;;;28.17;10.85;;;14.70;93.50;;;;;;4973846;28;20052;-88
2024/04/03 02:35:54;;;;;;;24.52;11.05;;;14.70;93.20;;;;;;4972884;28;20034;-87
2024/04/03 02:38:21;;;;;;;23.45;10.13;;;14.60;93.80;;;;;;4972462;28;20029;-86
2024/04/03 02:40:46;;;;;;;27.23;10.82;;;14.70;93.20;;;;;;4972640;28;20782;-87
2024/04/03 02:43:12;;;;;;;29.98;11.20;;;14.60;93.00;;;;;;4974277;28;20034;-85
2024/04/03 02:45:38;;;;;;;24.95;10.38;;;14.60;93.00;;;;;;4961721;28;20042;-86
2024/04/03 02:48:05;;;;;;;29.10;10.85;;;14.60;92.90;;;;;;4972291;28;20019;-88
2024/04/03 02:50:30;;;;;;;29.30;10.57;;;14.60;92.60;;;;;;4973254;28;20019;-86
2024/04/03 02:52:56;;;;;;;27.50;10.98;;;14.50;92.60;;;;;;4973501;28;20035;-84
2024/04/03 02:55:22;;;;;;;25.83;10.98;;;14.50;92.00;;;;;;4972432;28;20070;-86
2024/04/03 02:57:57;;;;;;;26.67;10.73;;;14.50;93.50;;;;;;4977039;28;20031;-86
2024/04/03 03:00:23;;;;;;;32.92;12.52;;;14.50;92.40;;;;;;4974531;28;20552;-86
2024/04/03 03:02:49;;;;;;;38.08;10.13;;;14.50;92.60;;;;;;4977576;28;20093;-85
2024/04/03 03:05:15;;;;;;;34.65;11.20;;;14.40;92.10;;;;;;4978345;28;20023;-87
2024/04/03 03:07:41;;;;;;;32.95;12.18;;;14.40;93.50;;;;;;4980558;28;20033;-85
2024/04/03 03:10:07;;;;;;;28.55;10.18;;;14.40;93.10;;;;;;4981318;28;20023;-86
2024/04/03 03:12:33;;;;;;;24.42;11.40;;;14.40;93.80;;;;;;4979960;28;20042;-85
2024/04/03 03:14:58;;;;;;;39.45;11.45;;;14.30;92.20;;;;;;4977266;28;20041;-86
2024/04/03 03:17:24;;;;;;;24.67;9.43;;;14.30;92.60;;;;;;4974271;28;20046;-85
2024/04/03 03:19:50;;;;;;;31.77;10.35;;;14.30;92.20;;;;;;4975392;28;20042;-86
2024/04/03 03:22:16;;;;;;;29.33;10.60;;;14.30;91.90;;;;;;4975351;28;20453;-86
2024/04/03 03:24:42;;;;;;;21.92;9.48;;;14.30;92.20;;;;;;4976771;28;20034;-85
2024/04/03 03:27:07;;;;;;;31.40;10.77;;;14.30;91.80;;;;;;4975893;28;20499;-87
2024/04/03 03:29:33;;;;;;;33.35;10.80;;;14.30;92.10;;;;;;4972377;28;20026;-86
2024/04/03 03:31:59;;;;;;;32.65;11.70;;;14.30;93.90;;;;;;4965479;28;20050;-86
2024/04/03 03:34:25;;;;;;;28.10;10.85;;;14.30;92.40;;;;;;4974154;28;20026;-86
2024/04/03 03:36:56;;;;;;;29.73;10.60;;;14.30;91.90;;;;;;4980669;28;20027;-86
2024/04/03 03:39:22;;;;;;;23.85;9.95;;;14.20;91.80;;;;;;4949441;28;20416;-84
2024/04/03 03:41:48;;;;;;;34.72;10.82;;;14.30;91.90;;;;;;4979485;28;20026;-86
2024/04/03 03:44:13;;;;;;;28.33;11.00;;;14.30;92.80;;;;;;4975245;28;20031;-84
2024/04/03 03:46:39;;;;;;;26.65;11.63;;;14.30;92.50;;;;;;4976479;28;20026;-85
2024/04/03 03:54:33;;;;;;;32.03;11.15;;;14.40;91.70;;;;;;4990505;28;20141;-84
2024/04/03 03:56:59;;;;;;;30.88;11.00;;;14.30;92.10;;;;;;4980820;28;20023;-83
2024/04/03 03:59:25;;;;;;;37.35;13.43;;;14.30;92.60;;;;;;4974536;28;20047;-83
2024/04/03 04:01:51;;;;;;;31.77;12.00;;;14.30;92.30;;;;;;4976743;28;20026;-84
2024/04/03 04:04:16;;;;;;;28.40;9.68;;;14.30;91.90;;;;;;4975370;28;20026;-84
2024/04/03 04:06:42;;;;;;;29.45;10.75;;;14.30;91.90;;;;;;4977088;28;20026;-84
2024/04/03 04:09:08;;;;;;;27.73;9.23;;;14.40;92.90;;;;;;4975990;28;20062;-85
2024/04/03 04:11:34;;;;;;;29.17;11.75;;;14.40;91.80;;;;;;4974409;28;20023;-85
2024/04/03 04:14:00;;;;;;;36.03;11.65;;;14.30;91.10;;;;;;4975033;28;20499;-84
2024/04/03 04:16:26;;;;;;;29.30;11.07;;;14.40;92.00;;;;;;4974447;28;20440;-84
2024/04/03 04:18:52;;;;;;;32.58;10.80;;;14.40;92.10;;;;;;4974710;28;20038;-86
2024/04/03 04:21:18;;;;;;;37.25;10.63;;;14.40;92.90;;;;;;4976164;28;20034;-84
2024/04/03 04:23:44;;;;;;;32.42;10.50;;;14.40;91.90;;;;;;4971891;28;20028;-85
2024/04/03 04:26:10;;;;;;;35.83;10.65;;;14.40;92.70;;;;;;4976020;28;20029;-84
2024/04/03 04:28:36;;;;;;;28.30;11.13;;;14.40;92.20;;;;;;4974283;28;20034;-84
2024/04/03 04:31:03;;;;;;;35.33;10.68;;;14.50;92.60;;;;;;4969326;28;20030;-85
2024/04/03 04:33:29;;;;;;;;;;;14.50;92.40;;;;;;4975225;28;20041;-84
2024/04/03 04:35:56;;;;;;;32.05;11.23;;;14.40;94.70;;;;;;4975303;28;20394;-84
2024/04/03 04:38:24;;;;;;;27.93;10.57;;;14.40;93.20;;;;;;4975573;28;20093;-88
2024/04/03 04:41:00;;;;;;;30.08;10.80;;;14.40;93.40;;;;;;4975173;28;20035;-86
2024/04/03 04:43:30;;;;;;;25.83;9.85;;;14.50;93.60;;;;;;4975062;28;20030;-85
2024/04/03 04:46:01;;;;;;;34.03;10.07;;;14.60;93.70;;;;;;4972344;28;20030;-85
2024/04/03 04:48:28;;;;;;;29.27;9.13;;;14.80;93.20;;;;;;4972580;28;20027;-85
2024/04/03 04:51:05;;;;;;;34.65;9.80;;;14.90;92.40;;;;;;4974869;28;20027;-84
2024/04/03 04:53:31;;;;;;;40.40;9.05;;;15.10;93.90;;;;;;4976390;28;20050;-85
2024/04/03 04:56:04;;;;;;;32.00;9.68;;;15.20;92.40;;;;;;4979904;28;20368;-84
2024/04/03 04:58:30;;;;;;;31.05;10.70;;;15.10;92.30;;;;;;4974244;28;20126;-85
2024/04/03 05:01:04;;;;;;;28.95;9.15;;;15.10;91.70;;;;;;4968908;28;20447;-86
2024/04/03 05:03:31;;;;;;;32.10;9.43;;;15.00;92.40;;;;;;4970644;28;20023;-86
2024/04/03 05:05:58;;;;;;;28.95;10.30;;;14.90;91.80;;;;;;4970625;28;20054;-84
2024/04/03 05:08:24;;;;;;;25.52;10.90;;;15.00;92.80;;;;;;4974026;28;20051;-84
2024/04/03 05:10:50;;;;;;;34.10;9.27;;;15.00;93.10;;;;;;4975117;28;20404;-83
2024/04/03 05:13:18;;;;;;;22.40;8.85;;;15.00;93.10;;;;;;4974628;28;20252;-85
2024/04/03 05:15:47;;;;;;;;;;;15.00;93.00;;;;;;4974775;28;20023;-86
2024/04/03 05:18:13;;;;;;;37.70;10.00;;;15.10;95.60;;;;;;4972948;28;20385;-84
2024/04/03 05:20:39;;;;;;;23.48;9.30;;;15.10;92.00;;;;;;4972307;28;20026;-84
2024/04/03 05:23:05;;;;;;;24.30;9.23;;;15.20;92.40;;;;;;4976712;28;20023;-84
2024/04/03 05:25:31;;;;;;;23.30;8.88;;;15.20;93.30;;;;;;4973604;28;20373;-84
2024/04/03 05:27:57;;;;;;;26.80;8.20;;;15.30;93.80;;;;;;4973330;28;20031;-83
2024/04/03 05:30:24;;;;;;;22.85;9.35;;;15.30;92.40;;;;;;4973514;28;20037;-84
2024/04/03 05:32:50;;;;;;;29.10;8.05;;;15.40;92.70;;;;;;4975175;28;20031;-84
2024/04/03 05:35:16;;;;;;;30.73;9.30;;;15.40;92.30;;;;;;4975853;28;20038;-83
2024/04/03 05:37:45;;;;;;;29.85;8.25;;;15.50;93.20;;;;;;4980290;28;20031;-86
2024/04/03 05:40:12;;;;;;;27.10;9.30;;;15.70;94.60;;;;;;4978557;28;20042;-86
2024/04/03 05:42:38;;;;;;;23.02;8.45;;;15.70;92.80;;;;;;4977610;28;20101;-86
2024/04/03 05:45:05;;;;;;;30.02;8.52;;;15.70;91.90;;;;;;4973198;28;20037;-84
2024/04/03 05:47:35;;;;;;;20.23;8.23;;;15.70;92.70;;;;;;4974401;28;20114;-85
2024/04/03 05:50:05;;;;;;;19.83;8.65;;;15.70;93.50;;;;;;4974850;28;20106;-86
2024/04/03 05:52:35;;;;;;;24.63;8.43;;;15.80;92.80;;;;;;4975017;28;20015;-87
2024/04/03 05:55:01;;;;;;;24.77;8.50;;;15.80;92.30;;;;;;4965969;28;20054;-87
2024/04/03 05:57:28;;;;;;;22.55;7.00;;;15.90;94.00;;;;;;4971025;28;20035;-86
2024/04/03 05:59:54;;;;;;;29.08;7.88;;;15.90;92.60;;;;;;4971431;28;20523;-87
2024/04/03 06:02:20;;;;;;;18.73;8.00;;;16.00;92.80;;;;;;4973514;28;20055;-87
2024/04/03 06:04:45;;;;;;;22.90;6.97;;;16.10;90.70;;;;;;4973847;28;20058;-87
2024/04/03 06:07:11;;;;;;;18.40;7.22;;;16.20;91.50;;;;;;4973774;28;20046;-85
2024/04/03 06:09:37;;;;;;;22.85;6.82;;;16.60;92.40;;;;;;4968641;28;20093;-83
2024/04/03 06:12:03;;;;;;;19.15;6.53;;;17.70;89.80;;;;;;4978078;28;20050;-84
2024/04/03 06:14:29;;;;;;;14.30;5.80;;;19.10;89.20;;;;;;4975698;28;20058;-85
2024/04/03 06:16:55;;;;;;;16.83;6.32;;;20.40;84.70;;;;;;4974072;28;20364;-87
2024/04/03 06:19:21;;;;;;;24.88;6.45;;;21.40;82.80;;;;;;4973915;28;20128;-82
2024/04/03 06:21:47;;;;;;;20.05;7.32;;;22.30;81.00;;;;;;4973511;28;20514;-85
2024/04/03 06:24:13;;;;;;;35.92;8.27;;;22.40;78.80;;;;;;4962389;28;20026;-86
2024/04/03 06:26:38;;;;;;;15.38;6.13;;;22.30;80.10;;;;;;4964518;28;20026;-85
2024/04/03 06:29:14;;;;;;;14.15;4.85;;;22.60;72.60;;;;;;4974554;28;20034;-88
2024/04/03 06:31:40;;;;;;;18.17;5.47;;;22.40;65.40;;;;;;4976303;28;20039;-87
2024/04/03 06:34:06;;;;;;;26.73;6.38;;;22.00;72.40;;;;;;4978613;28;20034;-86
2024/04/03 06:36:32;;;;;;;21.05;5.65;;;22.50;78.50;;;;;;4959608;28;20020;-88
2024/04/03 06:38:57;;;;;;;15.95;5.30;;;21.90;74.20;;;;;;4975678;28;20051;-87
2024/04/03 06:41:23;;;;;;;12.05;4.93;;;20.90;76.80;;;;;;4988089;28;20029;-86
2024/04/03 06:43:49;;;;;;;20.77;6.53;;;20.10;75.60;;;;;;4978640;28;20034;-87
2024/04/03 06:46:15;;;;;;;16.75;5.50;;;19.40;78.70;;;;;;4977497;28;20054;-88
2024/04/03 06:48:41;;;;;;;18.98;4.88;;;19.00;79.40;;;;;;4977769;28;20384;-87
2024/04/03 06:51:07;;;;;;;12.50;4.55;;;18.70;75.30;;;;;;4978819;28;20027;-88
2024/04/03 06:53:33;;;;;;;25.40;4.95;;;18.40;75.40;;;;;;4965093;28;20023;-87
2024/04/03 06:56:00;;;;;;;13.13;5.63;;;18.40;80.20;;;;;;4978383;28;20113;-88
2024/04/03 06:58:38;;;;;;;13.60;4.90;;;18.60;79.70;;;;;;4980974;28;20039;-87
2024/04/03 07:01:05;;;;;;;22.73;5.72;;;18.90;74.90;;;;;;4982798;28;20030;-86
2024/04/03 07:03:32;;;;;;;16.48;5.13;;;19.60;74.70;;;;;;4996403;28;20400;-88
2024/04/03 07:05:59;;;;;;;22.38;6.20;;;20.70;73.90;;;;;;4982593;28;20042;-88
2024/04/03 07:08:25;;;;;;;19.58;5.25;;;22.00;75.00;;;;;;4979546;28;20384;-88
2024/04/03 07:10:51;;;;;;;27.15;5.82;;;23.00;71.10;;;;;;4977750;28;20050;-88
2024/04/03 07:13:23;;;;;;;15.80;4.90;;;23.60;63.40;;;;;;4977183;28;20030;-88
2024/04/03 07:15:50;;;;;;;14.23;4.60;;;23.50;63.40;;;;;;4977445;28;20487;-89
2024/04/03 07:18:16;;;;;;;18.50;5.03;;;23.60;66.70;;;;;;4971128;28;20023;-88
2024/04/03 07:20:51;;;;;;;17.35;4.78;;;23.60;65.20;;;;;;4985934;28;20046;-87
2024/04/03 07:23:17;;;;;;;21.00;5.30;;;24.20;67.70;;;;;;4985220;28;20015;-89
2024/04/03 07:25:42;;;;;;;16.75;4.55;;;23.80;59.00;;;;;;4987737;28;20559;-87
2024/04/03 07:28:11;;;;;;;12.35;3.75;;;23.40;55.70;;;;;;4984635;28;20102;-87
2024/04/03 07:30:37;;;;;;;12.15;3.53;;;22.70;56.80;;;;;;4980768;28;20027;-88
2024/04/03 07:33:05;;;;;;;14.77;3.40;;;22.40;63.60;;;;;;4964312;28;20034;-87
2024/04/03 07:35:34;;;;;;;16.30;3.15;;;22.40;58.30;;;;;;4975923;28;20023;-88
2024/04/03 07:38:00;;;;;;;10.90;3.70;;;22.70;65.70;;;;;;4975757;28;20042;-90
2024/04/03 07:40:28;;;;;;;16.55;4.38;;;23.60;66.30;;;;;;4977300;28;20034;-89
2024/04/03 07:42:54;;;;;;;15.85;4.25;;;23.90;60.70;;;;;;4974999;28;20019;-88
2024/04/03 07:45:20;;;;;;;13.05;3.45;;;23.90;57.70;;;;;;4977557;28;20031;-88
2024/04/03 07:47:47;;;;;;;28.70;5.75;;;24.10;62.20;;;;;;4978197;28;20107;-88
2024/04/03 07:50:19;;;;;;;;;;;24.60;65.40;;;;;;4976917;28;20026;-89
2024/04/03 07:52:45;;;;;;;20.75;3.65;;;25.60;77.80;;;;;;4978760;28;19913;-88
2024/04/03 07:55:12;;;;;;;9.48;2.60;;;26.10;64.20;;;;;;4987777;28;20027;-90
2024/04/03 07:57:39;;;;;;;21.08;3.30;;;26.10;50.40;;;;;;4988041;28;20022;-90
2024/04/03 08:00:08;;;;;;;13.77;3.45;;;24.60;54.80;;;;;;4980186;28;20046;-89
2024/04/03 08:02:40;;;;;;;15.20;3.38;;;24.30;63.40;;;;;;4980495;28;20038;-90
2024/04/03 08:05:15;;;;;;;14.35;2.70;;;25.00;54.60;;;;;;4976298;28;20022;-89
2024/04/03 08:07:45;;;;;;;16.77;3.53;;;24.20;53.70;;;;;;4977693;28;20511;-91
2024/04/03 08:10:12;;;;;;;28.08;3.72;;;24.50;55.80;;;;;;4978884;28;20511;-90
2024/04/03 08:12:39;;;;;;;18.58;3.60;;;24.00;56.30;;;;;;4980186;28;20030;-91
2024/04/03 08:15:06;;;;;;;11.98;2.88;;;23.40;57.20;;;;;;4979254;28;20060;-90
2024/04/03 08:17:32;;;;;;;24.65;4.70;;;21.90;56.60;;;;;;4979811;28;20018;-90
2024/04/03 08:19:58;;;;;;;17.85;3.10;;;21.20;61.70;;;;;;4979600;28;20113;-90
2024/04/03 08:22:24;;;;;;;11.05;2.47;;;20.90;63.80;;;;;;4975514;28;20558;-91
2024/04/03 08:24:52;;;;;;;9.80;2.50;;;20.70;62.10;;;;;;4966763;28;20489;-90
2024/04/03 08:27:18;;;;;;;;;;;21.00;61.70;;;;;;4986008;28;20022;-91
2024/04/03 08:29:55;;;;;;;11.07;2.33;;;21.90;81.10;;;;;;4992030;28;19906;-90
2024/04/03 08:32:21;;;;;;;10.77;2.58;;;23.20;75.90;;;;;;4976046;28;20023;-89
2024/04/03 08:34:51;;;;;;;22.77;4.18;;;22.60;57.60;;;;;;4977286;28;20066;-92
2024/04/03 08:37:19;;;;;;;16.52;3.60;;;21.40;63.50;;;;;;4976291;28;20093;-89
2024/04/03 08:39:45;;;;;;;;;;;21.30;60.20;;;;;;4977729;28;20035;-89
2024/04/03 08:42:12;;;;;;;10.90;3.35;;;20.90;75.30;;;;;;4983536;28;19906;-91
2024/04/03 08:44:41;;;;;;;14.05;2.95;;;20.60;66.80;;;;;;4976198;28;20078;-89
2024/04/03 08:47:07;;;;;;;8.07;2.63;;;20.20;66.50;;;;;;4976879;28;20027;-89
2024/04/03 08:49:36;;;;;;;8.33;3.37;;;20.80;65.60;;;;;;4976913;28;20068;-90
2024/04/03 08:52:07;;;;;;;13.13;2.95;;;21.00;67.70;;;;;;4981536;28;20086;-87
2024/04/03 08:54:34;;;;;;;15.60;4.25;;;20.40;66.50;;;;;;4978727;28;20025;-89
2024/04/03 08:57:03;;;;;;;11.30;3.55;;;19.70;67.40;;;;;;4984226;28;20117;-90
2024/04/03 08:59:32;;;;;;;18.10;3.55;;;19.40;67.30;;;;;;4988886;28;20078;-90
2024/04/03 09:01:58;;;;;;;9.10;3.45;;;19.30;71.80;;;;;;4978820;28;20026;-91
2024/04/03 09:04:24;;;;;;;22.33;3.25;;;19.30;67.00;;;;;;4976977;28;20027;-89
2024/04/03 09:06:50;;;;;;;3.72;1.77;;;19.20;68.40;;;;;;4976539;28;20027;-89
2024/04/03 09:09:18;;;;;;;18.23;3.40;;;19.10;70.10;;;;;;4976021;28;20080;-90
2024/04/03 09:11:45;;;;;;;17.40;3.38;;;19.10;72.90;;;;;;4984882;28;20023;-89
2024/04/03 09:14:17;;;;;;;17.13;3.95;;;19.20;72.20;;;;;;4983963;28;20091;-89
2024/04/03 09:16:43;;;;;;;15.63;2.80;;;18.90;71.10;;;;;;4981569;28;20054;-89
2024/04/03 09:19:10;;;;;;;15.65;3.20;;;18.70;68.90;;;;;;4975280;28;20035;-89
2024/04/03 09:21:36;;;;;;;16.73;3.85;;;18.80;72.00;;;;;;4975846;28;20411;-89
2024/04/03 09:24:02;;;;;;;19.13;3.83;;;18.80;71.90;;;;;;4975590;28;20086;-90
2024/04/03 09:26:28;;;;;;;24.17;3.80;;;19.00;74.00;;;;;;4974321;28;20058;-88
2024/04/03 09:29:01;;;;;;;11.02;3.28;;;19.70;69.90;;;;;;4974596;28;20062;-87
2024/04/03 09:31:26;;;;;;;14.35;3.67;;;19.50;65.70;;;;;;4974788;28;20022;-86
2024/04/03 09:33:53;;;;;;;30.80;5.90;;;20.20;66.30;;;;;;4974782;28;20033;-87
2024/04/03 09:36:22;;;;;;;18.13;4.80;;;19.90;80.60;;;;;;4974325;28;20117;-88
2024/04/03 09:38:49;;;;;;;20.00;4.05;;;19.50;70.80;;;;;;4972384;28;20050;-86
2024/04/03 09:41:15;;;;;;;18.98;3.72;;;19.00;71.20;;;;;;4972975;28;20025;-87
2024/04/03 09:43:45;;;;;;;10.77;3.47;;;18.60;72.90;;;;;;4972779;28;20058;-86
2024/04/03 09:46:17;;;;;;;17.48;3.60;;;18.20;73.10;;;;;;4973803;28;20027;-86
2024/04/03 09:48:47;;;;;;;11.35;3.28;;;18.00;75.00;;;;;;4977181;28;20101;-87
2024/04/03 09:51:13;;;;;;;11.40;4.75;;;17.90;74.20;;;;;;4974418;28;20387;-87
2024/04/03 09:53:40;;;;;;;10.40;3.10;;;17.80;79.50;;;;;;4974473;28;20027;-87
2024/04/03 09:56:07;;;;;;;13.05;4.50;;;18.00;74.80;;;;;;4973739;28;20049;-88
2024/04/03 09:58:37;;;;;;;11.75;3.63;;;18.00;75.60;;;;;;4973705;28;20058;-86
2024/04/03 10:01:05;;;;;;;15.10;4.18;;;18.00;75.00;;;;;;4972236;28;20106;-87
2024/04/03 10:03:34;;;;;;;12.67;4.07;;;17.80;73.60;;;;;;4972584;28;20023;-87
2024/04/03 10:06:02;;;;;;;11.30;3.70;;;17.60;76.70;;;;;;4972382;28;20315;-87
2024/04/03 10:08:35;;;;;;;30.77;6.22;;;17.80;75.90;;;;;;4972260;28;20031;-87
2024/04/03 10:11:10;;;;;;;15.10;4.70;;;17.70;72.40;;;;;;4971998;28;20068;-86
2024/04/03 10:13:40;;;;;;;8.55;3.15;;;17.80;72.50;;;;;;4973327;28;20015;-87
2024/04/03 10:16:10;;;;;;;16.77;4.00;;;17.60;69.00;;;;;;4973495;28;20019;-87
2024/04/03 10:18:47;;;;;;;13.65;2.97;;;18.00;69.00;;;;;;4973831;28;20103;-87
2024/04/03 10:21:13;;;;;;;13.52;3.05;;;18.30;68.80;;;;;;4961467;28;20477;-85
2024/04/03 10:23:50;;;;;;;24.30;4.00;;;18.20;67.70;;;;;;4972068;28;20026;-86
2024/04/03 10:26:20;;;;;;;11.45;3.00;;;18.20;68.50;;;;;;4961769;28;20019;-84
2024/04/03 10:28:46;;;;;;;23.73;3.50;;;17.90;65.30;;;;;;4975276;28;20023;-84
2024/04/03 10:31:20;;;;;;;12.38;2.55;;;18.00;68.90;;;;;;4973140;28;20495;-85
2024/04/03 10:33:50;;;;;;;10.25;1.73;;;17.80;63.50;;;;;;4974587;28;20036;-86
2024/04/03 10:36:19;;;;;;;11.05;2.40;;;17.40;62.90;;;;;;4973825;28;20015;-85
2024/04/03 10:38:45;;;;;;;10.95;1.55;;;17.10;62.70;;;;;;4972718;28;20049;-84
2024/04/03 10:41:12;;;;;;;11.43;2.03;;;17.00;64.70;;;;;;4977031;28;20045;-86
2024/04/03 10:43:38;;;;;;;4.07;1.17;;;17.00;66.10;;;;;;4974288;28;20404;-85
2024/04/03 10:46:11;;;;;;;6.05;2.03;;;17.10;68.40;;;;;;4976624;28;20027;-87
2024/04/03 10:48:40;;;;;;;4.40;1.20;;;17.20;70.00;;;;;;4975565;28;20061;-85
2024/04/03 10:51:07;;;;;;;5.32;1.77;;;17.30;71.10;;;;;;4974295;28;20023;-84
2024/04/03 10:53:36;;;;;;;7.72;1.55;;;17.20;60.90;;;;;;4972798;28;20030;-84
2024/04/03 10:56:03;;;;;;;6.03;1.30;;;16.90;62.30;;;;;;4954065;28;20027;-87
2024/04/03 10:58:29;;;;;;;8.82;1.92;;;16.60;60.80;;;;;;4957714;28;20532;-85
2024/04/03 11:00:55;;;;;;;6.78;0.68;;;16.60;70.80;;;;;;4939031;29;20047;-86
2024/04/03 11:03:23;;;;;;;5.18;1.40;;;16.50;61.20;;;;;;4954100;28;20039;-84
2024/04/03 11:05:51;;;;;;;4.88;1.52;;;16.30;62.50;;;;;;4956432;28;20178;-87
2024/04/03 11:08:16;;;;;;;4.65;1.15;;;16.30;65.60;;;;;;4937723;28;20024;-86
2024/04/03 11:10:42;;;;;;;6.00;1.00;;;16.20;62.10;;;;;;4953810;28;20046;-86
2024/04/03 11:13:10;;;;;;;2.58;0.90;;;16.00;61.90;;;;;;4936013;28;20061;-86
2024/04/03 11:15:36;;;;;;;;;;;15.80;64.50;;;;;;4936552;29;20027;-85
2024/04/03 11:18:02;;;;;;;9.38;1.65;;;15.80;70.60;;;;;;4954510;28;20002;-85
2024/04/03 11:20:31;;;;;;;6.05;0.98;;;15.90;70.50;;;;;;4936113;28;20051;-84
2024/04/03 11:22:58;;;;;;;23.40;2.55;;;16.00;64.70;;;;;;4956152;28;20055;-84
2024/04/03 11:25:28;;;;;;;3.03;0.98;;;16.20;71.60;;;;;;4956388;28;20031;-83
2024/04/03 11:27:56;;;;;;;9.80;1.65;;;16.30;69.10;;;;;;4974507;28;20101;-83
2024/04/03 11:30:22;;;;;;;3.83;1.00;;;16.40;70.90;;;;;;4975994;28;20038;-84
2024/04/03 11:32:48;;;;;;;4.78;1.10;;;16.40;68.30;;;;;;4974716;28;20047;-84
2024/04/03 11:35:13;;;;;;;2.67;1.35;;;16.30;65.90;;;;;;4976240;28;20038;-84
2024/04/03 11:37:39;;;;;;;1.90;0.82;;;16.10;66.90;;;;;;4975902;28;20019;-83
2024/04/03 11:40:06;;;;;;;2.95;1.08;;;16.10;69.60;;;;;;4976391;28;20113;-83
2024/04/03 11:42:33;;;;;;;4.93;0.87;;;16.10;70.90;;;;;;4974890;28;20073;-85
2024/04/03 11:44:59;;;;;;;;;;;16.00;66.10;;;;;;4981201;28;20272;-82
2024/04/03 11:47:26;;;;;;;8.70;1.33;;;15.70;67.90;;;;;;4990877;28;19945;-84
2024/04/03 11:49:52;;;;;;;9.88;1.73;;;15.60;66.30;;;;;;4976719;28;20027;-82
2024/04/03 11:52:18;;;;;;;4.00;0.88;;;15.60;71.20;;;;;;4974318;28;20046;-83
2024/04/03 11:54:44;;;;;;;3.08;1.08;;;15.70;67.00;;;;;;4975500;28;20027;-84
2024/04/03 11:57:10;;;;;;;1.17;0.55;;;15.70;68.90;;;;;;4975635;28;20042;-83
2024/04/03 11:59:37;;;;;;;5.22;0.77;;;15.60;70.10;;;;;;4976016;28;20047;-82
2024/04/03 12:02:04;;;;;;;3.33;1.27;;;15.50;70.10;;;;;;4975159;28;20027;-83
2024/04/03 12:04:30;;;;;;;3.42;0.75;;;15.40;69.10;;;;;;4977276;28;20105;-83
2024/04/03 12:06:56;;;;;;;3.95;1.10;;;15.30;66.40;;;;;;4975128;28;20109;-83
2024/04/03 12:09:22;;;;;;;1.40;0.82;;;15.30;71.60;;;;;;4976395;28;20027;-85
2024/04/03 12:11:48;;;;;;;2.05;0.95;;;15.60;69.10;;;;;;4977456;28;20459;-85
2024/04/03 12:14:14;;;;;;;9.73;1.25;;;15.70;66.00;;;;;;4975758;28;20082;-83
2024/04/03 12:16:40;;;;;;;4.65;1.10;;;15.90;71.80;;;;;;4975275;28;20026;-83
2024/04/03 12:21:50;;;;;;;3.63;1.17;;;15.80;68.50;;;;;;4975237;28;20057;-84
2024/04/03 12:24:16;;;;;;;3.58;1.70;;;15.90;65.70;;;;;;4976001;28;20019;-82
2024/04/03 12:26:42;;;;;;;4.80;2.22;;;15.70;65.70;;;;;;4975388;28;20057;-83
2024/04/03 12:29:08;;;;;;;10.48;1.05;;;15.60;70.10;;;;;;4974511;28;20028;-81
2024/04/03 12:31:34;;;;;;;5.93;1.00;;;15.40;65.00;;;;;;4973795;28;20070;-82
2024/04/03 12:34:00;;;;;;;6.28;1.50;;;14.80;69.00;;;;;;4974710;28;20058;-82
2024/04/03 12:36:26;;;;;;;3.13;0.73;;;14.40;73.60;;;;;;4974852;28;20050;-81
2024/04/03 12:38:53;;;;;;;1.92;0.73;;;13.80;72.80;;;;;;4973266;28;20066;-79
2024/04/03 12:41:21;;;;;;;2.33;1.02;;;13.60;75.40;;;;;;4975443;28;20030;-80
2024/04/03 12:43:47;;;;;;;7.60;1.20;;;13.80;77.00;;;;;;4978383;28;20046;-80
2024/04/03 12:46:13;;;;;;;8.23;1.17;;;14.10;76.20;;;;;;4977973;28;20031;-81